Terminal Aerodrome Forecast
Issued by NWS Sioux Falls, SD

Home | Current Version | Previous Version | Graphics & Text | Print | Product List | Glossary Off
Versions: 1 2 3 4 5 6 7 8 9 10 11 12 13 14 15 16 17 18 19 20

000
FTUS43 KFSD 281913 AAA
TAFHON
TAF AMD
KHON 281913Z 2819/2918 35010KT P6SM -SHRA SCT015 OVC030
      TEMPO 2819/2821 4SM SHRA BKN015
     FM282200 35007KT P6SM OVC035
     FM290100 28005KT P6SM SCT035
     FM290600 21004KT P6SM BKN050
     FM291000 27005KT 3SM BR SKC
     FM291500 33012KT P6SM SCT030=

USA.gov is the U.S. government's official web portal to all federal, state and local government web resources and services.